sensor_id;sensor_type;location;lat;lon;timestamp;temperature;humidity
55135;DHT22;41031;44.750;11.308;2023-05-07T00:02:01;18.10;87.30
55135;DHT22;41031;44.750;11.308;2023-05-07T00:04:28;18.10;87.60
55135;DHT22;41031;44.750;11.308;2023-05-07T00:06:55;18.10;87.70
55135;DHT22;41031;44.750;11.308;2023-05-07T00:09:22;18.10;87.70
55135;DHT22;41031;44.750;11.308;2023-05-07T00:11:50;18.10;87.70
55135;DHT22;41031;44.750;11.308;2023-05-07T00:14:17;18.10;87.70
55135;DHT22;41031;44.750;11.308;2023-05-07T00:16:44;18.10;87.70
55135;DHT22;41031;44.750;11.308;2023-05-07T00:19:11;18.00;87.90
55135;DHT22;41031;44.750;11.308;2023-05-07T00:21:38;18.00;88.10
55135;DHT22;41031;44.750;11.308;2023-05-07T00:24:05;18.00;88.20
55135;DHT22;41031;44.750;11.308;2023-05-07T00:26:32;18.00;88.50
55135;DHT22;41031;44.750;11.308;2023-05-07T00:28:59;17.90;88.90
55135;DHT22;41031;44.750;11.308;2023-05-07T00:31:26;17.90;89.30
55135;DHT22;41031;44.750;11.308;2023-05-07T00:33:53;17.90;89.40
55135;DHT22;41031;44.750;11.308;2023-05-07T00:36:20;17.90;89.00
55135;DHT22;41031;44.750;11.308;2023-05-07T00:38:47;17.80;88.60
55135;DHT22;41031;44.750;11.308;2023-05-07T00:41:14;17.80;88.60
55135;DHT22;41031;44.750;11.308;2023-05-07T00:43:41;17.70;88.80
55135;DHT22;41031;44.750;11.308;2023-05-07T00:46:07;17.70;89.20
55135;DHT22;41031;44.750;11.308;2023-05-07T00:48:34;17.60;89.40
55135;DHT22;41031;44.750;11.308;2023-05-07T00:51:02;17.60;89.60
55135;DHT22;41031;44.750;11.308;2023-05-07T00:53:30;17.60;90.00
55135;DHT22;41031;44.750;11.308;2023-05-07T00:55:57;17.50;90.10
55135;DHT22;41031;44.750;11.308;2023-05-07T00:58:24;17.50;90.20
55135;DHT22;41031;44.750;11.308;2023-05-07T01:00:51;17.50;90.30
55135;DHT22;41031;44.750;11.308;2023-05-07T01:03:18;17.50;90.30
55135;DHT22;41031;44.750;11.308;2023-05-07T01:05:47;17.50;90.20
55135;DHT22;41031;44.750;11.308;2023-05-07T01:08:15;17.50;90.30
55135;DHT22;41031;44.750;11.308;2023-05-07T01:10:44;17.40;90.30
55135;DHT22;41031;44.750;11.308;2023-05-07T01:13:13;17.40;90.40
55135;DHT22;41031;44.750;11.308;2023-05-07T01:15:41;17.40;90.40
55135;DHT22;41031;44.750;11.308;2023-05-07T01:18:09;17.30;90.40
55135;DHT22;41031;44.750;11.308;2023-05-07T01:20:36;17.30;90.50
55135;DHT22;41031;44.750;11.308;2023-05-07T01:23:03;17.20;90.70
55135;DHT22;41031;44.750;11.308;2023-05-07T01:25:32;17.20;90.90
55135;DHT22;41031;44.750;11.308;2023-05-07T01:28:01;17.20;90.90
55135;DHT22;41031;44.750;11.308;2023-05-07T01:30:33;17.10;91.00
55135;DHT22;41031;44.750;11.308;2023-05-07T01:33:10;17.10;91.10
55135;DHT22;41031;44.750;11.308;2023-05-07T01:35:40;17.10;91.20
55135;DHT22;41031;44.750;11.308;2023-05-07T01:38:08;17.10;91.20
55135;DHT22;41031;44.750;11.308;2023-05-07T01:40:35;17.00;91.20
55135;DHT22;41031;44.750;11.308;2023-05-07T01:43:03;17.00;91.30
55135;DHT22;41031;44.750;11.308;2023-05-07T01:45:32;17.00;91.40
55135;DHT22;41031;44.750;11.308;2023-05-07T01:48:01;17.00;91.40
55135;DHT22;41031;44.750;11.308;2023-05-07T01:50:29;16.90;91.30
55135;DHT22;41031;44.750;11.308;2023-05-07T01:52:57;16.90;91.40
55135;DHT22;41031;44.750;11.308;2023-05-07T01:55:24;16.90;91.40
55135;DHT22;41031;44.750;11.308;2023-05-07T01:57:51;16.90;91.40
55135;DHT22;41031;44.750;11.308;2023-05-07T02:00:19;16.80;91.30
55135;DHT22;41031;44.750;11.308;2023-05-07T02:02:46;16.80;91.40
55135;DHT22;41031;44.750;11.308;2023-05-07T02:05:25;16.70;91.30
55135;DHT22;41031;44.750;11.308;2023-05-07T02:08:01;16.60;91.40
55135;DHT22;41031;44.750;11.308;2023-05-07T02:10:29;16.60;91.50
55135;DHT22;41031;44.750;11.308;2023-05-07T02:12:57;16.50;91.50
55135;DHT22;41031;44.750;11.308;2023-05-07T02:15:24;16.50;91.50
55135;DHT22;41031;44.750;11.308;2023-05-07T02:18:06;16.50;91.50
55135;DHT22;41031;44.750;11.308;2023-05-07T02:20:33;16.50;91.70
55135;DHT22;41031;44.750;11.308;2023-05-07T02:23:01;16.50;91.80
55135;DHT22;41031;44.750;11.308;2023-05-07T02:25:29;16.50;91.90
55135;DHT22;41031;44.750;11.308;2023-05-07T02:27:58;16.50;92.00
55135;DHT22;41031;44.750;11.308;2023-05-07T02:30:38;16.40;92.00
55135;DHT22;41031;44.750;11.308;2023-05-07T02:33:05;16.40;92.00
55135;DHT22;41031;44.750;11.308;2023-05-07T02:35:34;16.40;92.10
55135;DHT22;41031;44.750;11.308;2023-05-07T02:38:01;16.40;92.20
55135;DHT22;41031;44.750;11.308;2023-05-07T02:40:28;16.40;92.30
55135;DHT22;41031;44.750;11.308;2023-05-07T02:42:55;16.40;92.40
55135;DHT22;41031;44.750;11.308;2023-05-07T02:45:22;16.40;92.50
55135;DHT22;41031;44.750;11.308;2023-05-07T02:47:52;16.40;92.50
55135;DHT22;41031;44.750;11.308;2023-05-07T02:50:19;16.30;92.50
55135;DHT22;41031;44.750;11.308;2023-05-07T02:52:46;16.30;92.50
55135;DHT22;41031;44.750;11.308;2023-05-07T02:55:14;16.30;92.40
55135;DHT22;41031;44.750;11.308;2023-05-07T02:57:41;16.30;92.30
55135;DHT22;41031;44.750;11.308;2023-05-07T03:00:19;16.30;92.40
55135;DHT22;41031;44.750;11.308;2023-05-07T03:02:59;16.20;92.40
55135;DHT22;41031;44.750;11.308;2023-05-07T03:05:26;16.20;92.50
55135;DHT22;41031;44.750;11.308;2023-05-07T03:07:53;16.20;92.50
55135;DHT22;41031;44.750;11.308;2023-05-07T03:10:20;16.20;92.50
55135;DHT22;41031;44.750;11.308;2023-05-07T03:12:46;16.10;92.60
55135;DHT22;41031;44.750;11.308;2023-05-07T03:15:16;16.10;92.60
55135;DHT22;41031;44.750;11.308;2023-05-07T03:17:43;16.10;92.50
55135;DHT22;41031;44.750;11.308;2023-05-07T03:20:10;16.10;92.60
55135;DHT22;41031;44.750;11.308;2023-05-07T03:22:40;16.10;92.70
55135;DHT22;41031;44.750;11.308;2023-05-07T03:25:08;16.10;92.80
55135;DHT22;41031;44.750;11.308;2023-05-07T03:27:35;16.10;92.80
55135;DHT22;41031;44.750;11.308;2023-05-07T03:30:02;16.10;92.80
55135;DHT22;41031;44.750;11.308;2023-05-07T03:32:29;16.10;92.90
55135;DHT22;41031;44.750;11.308;2023-05-07T03:34:56;16.10;93.00
55135;DHT22;41031;44.750;11.308;2023-05-07T03:37:23;16.10;93.00
55135;DHT22;41031;44.750;11.308;2023-05-07T03:39:50;16.10;93.00
55135;DHT22;41031;44.750;11.308;2023-05-07T03:42:18;16.10;93.00
55135;DHT22;41031;44.750;11.308;2023-05-07T03:44:49;16.00;93.00
55135;DHT22;41031;44.750;11.308;2023-05-07T03:47:16;16.10;92.90
55135;DHT22;41031;44.750;11.308;2023-05-07T03:49:44;16.00;92.80
55135;DHT22;41031;44.750;11.308;2023-05-07T03:52:12;16.00;92.80
55135;DHT22;41031;44.750;11.308;2023-05-07T03:54:39;16.00;92.80
55135;DHT22;41031;44.750;11.308;2023-05-07T03:57:06;16.00;92.90
55135;DHT22;41031;44.750;11.308;2023-05-07T03:59:34;16.00;93.00
55135;DHT22;41031;44.750;11.308;2023-05-07T04:02:01;16.00;93.00
55135;DHT22;41031;44.750;11.308;2023-05-07T04:04:32;16.00;93.10
55135;DHT22;41031;44.750;11.308;2023-05-07T04:07:00;16.00;93.10
55135;DHT22;41031;44.750;11.308;2023-05-07T04:09:29;16.00;93.20
55135;DHT22;41031;44.750;11.308;2023-05-07T04:11:57;16.10;93.30
55135;DHT22;41031;44.750;11.308;2023-05-07T04:14:24;16.10;93.20
55135;DHT22;41031;44.750;11.308;2023-05-07T04:16:51;16.00;93.00
55135;DHT22;41031;44.750;11.308;2023-05-07T04:19:18;16.10;93.00
55135;DHT22;41031;44.750;11.308;2023-05-07T04:21:49;16.00;92.90
55135;DHT22;41031;44.750;11.308;2023-05-07T04:24:16;16.00;93.00
55135;DHT22;41031;44.750;11.308;2023-05-07T04:26:44;16.10;93.20
55135;DHT22;41031;44.750;11.308;2023-05-07T04:29:12;16.10;93.20
55135;DHT22;41031;44.750;11.308;2023-05-07T04:31:39;16.10;93.30
55135;DHT22;41031;44.750;11.308;2023-05-07T04:34:07;16.10;93.40
55135;DHT22;41031;44.750;11.308;2023-05-07T04:36:34;16.20;93.30
55135;DHT22;41031;44.750;11.308;2023-05-07T04:39:07;16.20;93.30
55135;DHT22;41031;44.750;11.308;2023-05-07T04:41:36;16.20;93.40
55135;DHT22;41031;44.750;11.308;2023-05-07T04:44:05;16.20;93.50
55135;DHT22;41031;44.750;11.308;2023-05-07T04:46:34;16.20;93.60
55135;DHT22;41031;44.750;11.308;2023-05-07T04:49:01;16.20;93.70
55135;DHT22;41031;44.750;11.308;2023-05-07T04:51:30;16.20;93.80
55135;DHT22;41031;44.750;11.308;2023-05-07T04:54:01;16.20;93.70
55135;DHT22;41031;44.750;11.308;2023-05-07T04:56:29;16.30;93.70
55135;DHT22;41031;44.750;11.308;2023-05-07T04:58:58;16.30;93.70
55135;DHT22;41031;44.750;11.308;2023-05-07T05:01:25;16.30;93.70
55135;DHT22;41031;44.750;11.308;2023-05-07T05:03:52;16.30;93.70
55135;DHT22;41031;44.750;11.308;2023-05-07T05:06:20;16.30;93.70
55135;DHT22;41031;44.750;11.308;2023-05-07T05:08:47;16.30;93.70
55135;DHT22;41031;44.750;11.308;2023-05-07T05:11:14;16.40;93.70
55135;DHT22;41031;44.750;11.308;2023-05-07T05:13:42;16.40;93.70
55135;DHT22;41031;44.750;11.308;2023-05-07T05:16:14;16.40;93.80
55135;DHT22;41031;44.750;11.308;2023-05-07T05:18:42;16.50;93.80
55135;DHT22;41031;44.750;11.308;2023-05-07T05:21:11;16.60;93.80
55135;DHT22;41031;44.750;11.308;2023-05-07T05:23:40;16.60;93.70
55135;DHT22;41031;44.750;11.308;2023-05-07T05:26:08;16.70;93.70
55135;DHT22;41031;44.750;11.308;2023-05-07T05:28:35;16.80;93.70
55135;DHT22;41031;44.750;11.308;2023-05-07T05:31:03;16.80;93.80
55135;DHT22;41031;44.750;11.308;2023-05-07T05:33:34;16.90;93.90
55135;DHT22;41031;44.750;11.308;2023-05-07T05:36:04;17.00;93.90
55135;DHT22;41031;44.750;11.308;2023-05-07T05:38:32;17.10;93.90
55135;DHT22;41031;44.750;11.308;2023-05-07T05:40:59;17.20;93.80
55135;DHT22;41031;44.750;11.308;2023-05-07T05:43:28;17.30;93.70
55135;DHT22;41031;44.750;11.308;2023-05-07T05:45:56;17.40;93.70
55135;DHT22;41031;44.750;11.308;2023-05-07T05:48:23;17.40;93.70
55135;DHT22;41031;44.750;11.308;2023-05-07T05:50:50;17.60;93.80
55135;DHT22;41031;44.750;11.308;2023-05-07T05:53:18;17.70;93.90
55135;DHT22;41031;44.750;11.308;2023-05-07T05:55:45;17.90;93.80
55135;DHT22;41031;44.750;11.308;2023-05-07T05:58:12;18.10;93.80
55135;DHT22;41031;44.750;11.308;2023-05-07T06:00:45;18.20;93.60
55135;DHT22;41031;44.750;11.308;2023-05-07T06:03:12;18.40;93.50
55135;DHT22;41031;44.750;11.308;2023-05-07T06:05:41;18.60;93.30
55135;DHT22;41031;44.750;11.308;2023-05-07T06:08:08;18.80;93.10
55135;DHT22;41031;44.750;11.308;2023-05-07T06:10:37;18.90;92.50
55135;DHT22;41031;44.750;11.308;2023-05-07T06:13:07;19.00;92.40
55135;DHT22;41031;44.750;11.308;2023-05-07T06:15:36;19.10;92.30
55135;DHT22;41031;44.750;11.308;2023-05-07T06:18:08;19.10;92.00
55135;DHT22;41031;44.750;11.308;2023-05-07T06:20:36;19.20;91.90
55135;DHT22;41031;44.750;11.308;2023-05-07T06:23:07;19.20;91.80
55135;DHT22;41031;44.750;11.308;2023-05-07T06:25:34;19.30;92.00
55135;DHT22;41031;44.750;11.308;2023-05-07T06:28:01;19.50;92.00
55135;DHT22;41031;44.750;11.308;2023-05-07T06:30:29;19.60;91.80
55135;DHT22;41031;44.750;11.308;2023-05-07T06:32:56;19.80;91.40
55135;DHT22;41031;44.750;11.308;2023-05-07T06:35:25;19.90;91.10
55135;DHT22;41031;44.750;11.308;2023-05-07T06:37:53;19.90;91.10
55135;DHT22;41031;44.750;11.308;2023-05-07T06:40:23;20.00;91.10
55135;DHT22;41031;44.750;11.308;2023-05-07T06:42:50;20.10;91.30
55135;DHT22;41031;44.750;11.308;2023-05-07T06:45:43;20.20;91.30
55135;DHT22;41031;44.750;11.308;2023-05-07T06:48:11;20.40;90.60
55135;DHT22;41031;44.750;11.308;2023-05-07T06:50:48;20.40;90.50
55135;DHT22;41031;44.750;11.308;2023-05-07T06:53:15;20.50;90.30
55135;DHT22;41031;44.750;11.308;2023-05-07T06:55:43;20.60;90.30
55135;DHT22;41031;44.750;11.308;2023-05-07T06:58:11;20.70;90.40
55135;DHT22;41031;44.750;11.308;2023-05-07T07:00:39;20.80;90.00
55135;DHT22;41031;44.750;11.308;2023-05-07T07:03:07;20.80;90.00
55135;DHT22;41031;44.750;11.308;2023-05-07T07:05:35;21.00;89.40
55135;DHT22;41031;44.750;11.308;2023-05-07T07:08:03;21.20;89.20
55135;DHT22;41031;44.750;11.308;2023-05-07T07:10:31;21.30;89.20
55135;DHT22;41031;44.750;11.308;2023-05-07T07:12:59;21.40;88.10
55135;DHT22;41031;44.750;11.308;2023-05-07T07:15:28;21.60;87.80
55135;DHT22;41031;44.750;11.308;2023-05-07T07:17:56;21.70;87.60
55135;DHT22;41031;44.750;11.308;2023-05-07T07:20:24;21.80;87.40
55135;DHT22;41031;44.750;11.308;2023-05-07T07:22:51;21.90;87.00
55135;DHT22;41031;44.750;11.308;2023-05-07T07:25:18;22.10;86.60
55135;DHT22;41031;44.750;11.308;2023-05-07T07:27:47;22.20;85.70
55135;DHT22;41031;44.750;11.308;2023-05-07T07:30:15;22.30;84.30
55135;DHT22;41031;44.750;11.308;2023-05-07T07:32:46;22.40;84.30
55135;DHT22;41031;44.750;11.308;2023-05-07T07:35:14;22.50;84.50
55135;DHT22;41031;44.750;11.308;2023-05-07T07:37:43;22.60;83.60
55135;DHT22;41031;44.750;11.308;2023-05-07T07:40:12;22.70;83.10
55135;DHT22;41031;44.750;11.308;2023-05-07T07:42:39;22.70;83.10
55135;DHT22;41031;44.750;11.308;2023-05-07T07:45:07;22.80;83.20
55135;DHT22;41031;44.750;11.308;2023-05-07T07:47:39;23.00;83.10
55135;DHT22;41031;44.750;11.308;2023-05-07T07:50:08;23.20;81.90
55135;DHT22;41031;44.750;11.308;2023-05-07T07:52:35;23.30;81.40
55135;DHT22;41031;44.750;11.308;2023-05-07T07:55:03;23.50;81.40
55135;DHT22;41031;44.750;11.308;2023-05-07T07:57:30;23.60;80.30
55135;DHT22;41031;44.750;11.308;2023-05-07T07:59:57;23.70;79.80
55135;DHT22;41031;44.750;11.308;2023-05-07T08:02:24;23.80;79.50
55135;DHT22;41031;44.750;11.308;2023-05-07T08:04:52;23.90;79.90
55135;DHT22;41031;44.750;11.308;2023-05-07T08:07:19;24.10;80.00
55135;DHT22;41031;44.750;11.308;2023-05-07T08:09:48;24.20;78.80
55135;DHT22;41031;44.750;11.308;2023-05-07T08:12:19;24.20;78.30
55135;DHT22;41031;44.750;11.308;2023-05-07T08:14:46;24.20;78.40
55135;DHT22;41031;44.750;11.308;2023-05-07T08:17:13;24.20;77.60
55135;DHT22;41031;44.750;11.308;2023-05-07T08:19:43;24.20;77.20
55135;DHT22;41031;44.750;11.308;2023-05-07T08:22:13;24.20;77.80
55135;DHT22;41031;44.750;11.308;2023-05-07T08:24:40;24.30;76.80
55135;DHT22;41031;44.750;11.308;2023-05-07T08:27:08;24.20;77.80
55135;DHT22;41031;44.750;11.308;2023-05-07T08:29:36;24.20;77.90
55135;DHT22;41031;44.750;11.308;2023-05-07T08:32:03;24.40;77.90
55135;DHT22;41031;44.750;11.308;2023-05-07T08:34:30;24.60;77.70
55135;DHT22;41031;44.750;11.308;2023-05-07T08:37:00;24.80;76.90
55135;DHT22;41031;44.750;11.308;2023-05-07T08:39:28;25.00;75.90
55135;DHT22;41031;44.750;11.308;2023-05-07T08:41:56;25.20;75.30
55135;DHT22;41031;44.750;11.308;2023-05-07T08:44:26;25.30;74.30
55135;DHT22;41031;44.750;11.308;2023-05-07T08:46:58;25.30;74.60
55135;DHT22;41031;44.750;11.308;2023-05-07T08:49:27;25.50;74.10
55135;DHT22;41031;44.750;11.308;2023-05-07T08:51:55;25.60;73.60
55135;DHT22;41031;44.750;11.308;2023-05-07T08:54:23;25.80;73.30
55135;DHT22;41031;44.750;11.308;2023-05-07T08:56:52;26.00;72.80
55135;DHT22;41031;44.750;11.308;2023-05-07T08:59:19;26.10;71.70
55135;DHT22;41031;44.750;11.308;2023-05-07T09:01:47;26.20;71.00
55135;DHT22;41031;44.750;11.308;2023-05-07T09:04:15;26.30;70.60
55135;DHT22;41031;44.750;11.308;2023-05-07T09:06:43;26.40;70.00
55135;DHT22;41031;44.750;11.308;2023-05-07T09:09:14;26.50;69.40
55135;DHT22;41031;44.750;11.308;2023-05-07T09:11:44;26.70;69.20
55135;DHT22;41031;44.750;11.308;2023-05-07T09:14:14;26.80;68.70
55135;DHT22;41031;44.750;11.308;2023-05-07T09:16:43;26.90;67.70
55135;DHT22;41031;44.750;11.308;2023-05-07T09:19:11;27.10;66.10
55135;DHT22;41031;44.750;11.308;2023-05-07T09:21:42;27.10;65.90
55135;DHT22;41031;44.750;11.308;2023-05-07T09:24:11;27.20;65.80
55135;DHT22;41031;44.750;11.308;2023-05-07T09:26:40;27.30;66.20
55135;DHT22;41031;44.750;11.308;2023-05-07T09:29:10;27.40;66.30
55135;DHT22;41031;44.750;11.308;2023-05-07T09:31:38;27.50;65.20
55135;DHT22;41031;44.750;11.308;2023-05-07T09:34:07;27.40;64.00
55135;DHT22;41031;44.750;11.308;2023-05-07T09:36:37;27.40;63.90
55135;DHT22;41031;44.750;11.308;2023-05-07T09:39:04;27.40;65.00
55135;DHT22;41031;44.750;11.308;2023-05-07T09:41:32;27.50;65.00
55135;DHT22;41031;44.750;11.308;2023-05-07T09:44:09;27.60;63.90
55135;DHT22;41031;44.750;11.308;2023-05-07T09:46:47;27.60;61.70
55135;DHT22;41031;44.750;11.308;2023-05-07T09:49:23;27.60;62.60
55135;DHT22;41031;44.750;11.308;2023-05-07T09:52:00;27.50;64.10
55135;DHT22;41031;44.750;11.308;2023-05-07T09:54:29;27.50;63.50
55135;DHT22;41031;44.750;11.308;2023-05-07T09:56:59;27.40;64.10
55135;DHT22;41031;44.750;11.308;2023-05-07T09:59:30;27.40;63.90
55135;DHT22;41031;44.750;11.308;2023-05-07T10:02:01;27.40;62.20
55135;DHT22;41031;44.750;11.308;2023-05-07T10:04:34;27.40;62.00
55135;DHT22;41031;44.750;11.308;2023-05-07T10:07:01;27.40;61.90
55135;DHT22;41031;44.750;11.308;2023-05-07T10:09:30;27.60;61.90
55135;DHT22;41031;44.750;11.308;2023-05-07T10:11:58;27.70;60.30
55135;DHT22;41031;44.750;11.308;2023-05-07T10:14:28;27.80;60.60
55135;DHT22;41031;44.750;11.308;2023-05-07T10:16:57;27.90;59.80
55135;DHT22;41031;44.750;11.308;2023-05-07T10:19:25;28.00;58.40
55135;DHT22;41031;44.750;11.308;2023-05-07T10:21:58;28.00;58.00
55135;DHT22;41031;44.750;11.308;2023-05-07T10:24:33;28.00;58.40
55135;DHT22;41031;44.750;11.308;2023-05-07T10:27:12;28.10;57.80
55135;DHT22;41031;44.750;11.308;2023-05-07T10:32:47;28.10;56.90
55135;DHT22;41031;44.750;11.308;2023-05-07T10:35:29;28.00;56.70
55135;DHT22;41031;44.750;11.308;2023-05-07T10:38:01;28.10;54.80
55135;DHT22;41031;44.750;11.308;2023-05-07T10:40:31;28.00;54.50
55135;DHT22;41031;44.750;11.308;2023-05-07T10:43:01;28.00;55.80
55135;DHT22;41031;44.750;11.308;2023-05-07T10:45:34;28.10;54.40
55135;DHT22;41031;44.750;11.308;2023-05-07T10:48:13;28.20;54.90
55135;DHT22;41031;44.750;11.308;2023-05-07T10:51:20;28.30;54.60
55135;DHT22;41031;44.750;11.308;2023-05-07T10:56:52;28.60;52.50
55135;DHT22;41031;44.750;11.308;2023-05-07T10:59:31;28.70;53.60
55135;DHT22;41031;44.750;11.308;2023-05-07T11:02:06;28.70;54.00
55135;DHT22;41031;44.750;11.308;2023-05-07T11:05:22;28.80;53.20
55135;DHT22;41031;44.750;11.308;2023-05-07T11:08:08;28.70;53.50
55135;DHT22;41031;44.750;11.308;2023-05-07T11:10:52;28.80;54.00
55135;DHT22;41031;44.750;11.308;2023-05-07T11:13:44;28.70;54.10
55135;DHT22;41031;44.750;11.308;2023-05-07T11:16:30;28.70;54.70
55135;DHT22;41031;44.750;11.308;2023-05-07T11:19:11;28.70;54.70
55135;DHT22;41031;44.750;11.308;2023-05-07T11:21:43;28.70;54.70
55135;DHT22;41031;44.750;11.308;2023-05-07T11:24:39;28.70;55.10
55135;DHT22;41031;44.750;11.308;2023-05-07T11:27:08;28.80;55.60
55135;DHT22;41031;44.750;11.308;2023-05-07T11:29:36;29.00;55.60
55135;DHT22;41031;44.750;11.308;2023-05-07T11:32:07;29.10;53.90
55135;DHT22;41031;44.750;11.308;2023-05-07T11:34:41;29.10;52.80
55135;DHT22;41031;44.750;11.308;2023-05-07T11:37:09;29.00;50.90
55135;DHT22;41031;44.750;11.308;2023-05-07T11:40:09;29.00;50.50
55135;DHT22;41031;44.750;11.308;2023-05-07T11:42:39;28.90;51.20
55135;DHT22;41031;44.750;11.308;2023-05-07T11:45:07;28.90;52.40
55135;DHT22;41031;44.750;11.308;2023-05-07T11:47:34;29.00;52.00
55135;DHT22;41031;44.750;11.308;2023-05-07T11:50:06;29.00;51.80
55135;DHT22;41031;44.750;11.308;2023-05-07T11:52:35;29.10;52.70
55135;DHT22;41031;44.750;11.308;2023-05-07T11:55:03;29.20;52.80
55135;DHT22;41031;44.750;11.308;2023-05-07T11:57:33;29.20;51.90
55135;DHT22;41031;44.750;11.308;2023-05-07T12:00:02;29.30;52.90
55135;DHT22;41031;44.750;11.308;2023-05-07T12:02:38;29.30;54.00
55135;DHT22;41031;44.750;11.308;2023-05-07T12:05:05;29.30;51.70
55135;DHT22;41031;44.750;11.308;2023-05-07T12:07:33;29.30;50.90
55135;DHT22;41031;44.750;11.308;2023-05-07T12:10:07;29.20;51.00
55135;DHT22;41031;44.750;11.308;2023-05-07T12:12:41;29.20;51.60
55135;DHT22;41031;44.750;11.308;2023-05-07T12:15:09;29.20;53.00
55135;DHT22;41031;44.750;11.308;2023-05-07T12:17:37;29.30;52.20
55135;DHT22;41031;44.750;11.308;2023-05-07T12:20:06;29.20;52.60
55135;DHT22;41031;44.750;11.308;2023-05-07T12:22:33;29.20;52.60
55135;DHT22;41031;44.750;11.308;2023-05-07T12:25:00;29.20;52.70
55135;DHT22;41031;44.750;11.308;2023-05-07T12:27:27;29.20;51.30
55135;DHT22;41031;44.750;11.308;2023-05-07T12:29:54;29.20;52.70
55135;DHT22;41031;44.750;11.308;2023-05-07T12:32:21;29.20;51.30
55135;DHT22;41031;44.750;11.308;2023-05-07T12:34:52;29.20;51.90
55135;DHT22;41031;44.750;11.308;2023-05-07T12:37:25;29.10;49.60
55135;DHT22;41031;44.750;11.308;2023-05-07T12:40:10;29.00;50.90
55135;DHT22;41031;44.750;11.308;2023-05-07T12:42:39;29.00;51.30
55135;DHT22;41031;44.750;11.308;2023-05-07T12:45:15;29.00;52.30
55135;DHT22;41031;44.750;11.308;2023-05-07T12:47:44;29.00;51.90
55135;DHT22;41031;44.750;11.308;2023-05-07T12:50:13;29.10;52.00
55135;DHT22;41031;44.750;11.308;2023-05-07T12:52:40;29.20;51.30
55135;DHT22;41031;44.750;11.308;2023-05-07T12:55:08;29.20;50.70
55135;DHT22;41031;44.750;11.308;2023-05-07T12:57:39;29.20;50.70
55135;DHT22;41031;44.750;11.308;2023-05-07T13:00:07;29.20;49.50
55135;DHT22;41031;44.750;11.308;2023-05-07T13:02:39;29.10;51.30
55135;DHT22;41031;44.750;11.308;2023-05-07T13:05:07;29.10;49.90
55135;DHT22;41031;44.750;11.308;2023-05-07T13:07:35;29.00;50.60
55135;DHT22;41031;44.750;11.308;2023-05-07T13:10:04;29.00;51.00
55135;DHT22;41031;44.750;11.308;2023-05-07T13:12:31;29.00;51.50
55135;DHT22;41031;44.750;11.308;2023-05-07T13:14:58;29.00;51.30
55135;DHT22;41031;44.750;11.308;2023-05-07T13:17:25;28.90;51.70
55135;DHT22;41031;44.750;11.308;2023-05-07T13:19:53;28.90;51.90
55135;DHT22;41031;44.750;11.308;2023-05-07T13:22:20;28.90;51.30
55135;DHT22;41031;44.750;11.308;2023-05-07T13:24:46;28.80;52.10
55135;DHT22;41031;44.750;11.308;2023-05-07T13:27:14;28.80;51.40
55135;DHT22;41031;44.750;11.308;2023-05-07T13:29:41;28.70;50.50
55135;DHT22;41031;44.750;11.308;2023-05-07T13:32:07;28.70;51.10
55135;DHT22;41031;44.750;11.308;2023-05-07T13:34:35;28.60;51.80
55135;DHT22;41031;44.750;11.308;2023-05-07T13:37:01;28.50;51.40
55135;DHT22;41031;44.750;11.308;2023-05-07T13:39:28;28.40;51.90
55135;DHT22;41031;44.750;11.308;2023-05-07T13:41:55;28.30;52.10
55135;DHT22;41031;44.750;11.308;2023-05-07T13:44:22;28.30;53.20
55135;DHT22;41031;44.750;11.308;2023-05-07T13:46:49;28.30;54.90
55135;DHT22;41031;44.750;11.308;2023-05-07T13:49:17;28.40;54.90
55135;DHT22;41031;44.750;11.308;2023-05-07T13:51:44;28.40;54.80
55135;DHT22;41031;44.750;11.308;2023-05-07T13:54:11;28.50;54.70
55135;DHT22;41031;44.750;11.308;2023-05-07T13:56:38;28.50;54.70
55135;DHT22;41031;44.750;11.308;2023-05-07T13:59:05;28.50;55.20
55135;DHT22;41031;44.750;11.308;2023-05-07T14:01:32;28.50;54.80
55135;DHT22;41031;44.750;11.308;2023-05-07T14:03:59;28.50;55.00
55135;DHT22;41031;44.750;11.308;2023-05-07T14:06:27;28.40;54.80
55135;DHT22;41031;44.750;11.308;2023-05-07T14:08:54;28.40;55.20
55135;DHT22;41031;44.750;11.308;2023-05-07T14:11:20;28.40;55.20
55135;DHT22;41031;44.750;11.308;2023-05-07T14:13:48;28.40;55.10
55135;DHT22;41031;44.750;11.308;2023-05-07T14:16:14;28.50;56.00
55135;DHT22;41031;44.750;11.308;2023-05-07T14:18:42;28.50;56.30
55135;DHT22;41031;44.750;11.308;2023-05-07T14:21:08;28.40;55.70
55135;DHT22;41031;44.750;11.308;2023-05-07T14:23:38;28.40;55.40
55135;DHT22;41031;44.750;11.308;2023-05-07T14:26:05;28.40;55.00
55135;DHT22;41031;44.750;11.308;2023-05-07T14:28:32;28.30;54.60
55135;DHT22;41031;44.750;11.308;2023-05-07T14:30:59;28.30;54.40
55135;DHT22;41031;44.750;11.308;2023-05-07T14:33:26;28.30;53.90
55135;DHT22;41031;44.750;11.308;2023-05-07T14:35:53;28.40;54.50
55135;DHT22;41031;44.750;11.308;2023-05-07T14:38:21;28.40;54.30
55135;DHT22;41031;44.750;11.308;2023-05-07T14:40:48;28.40;55.60
55135;DHT22;41031;44.750;11.308;2023-05-07T14:43:15;28.40;55.70
55135;DHT22;41031;44.750;11.308;2023-05-07T14:45:42;28.40;55.80
55135;DHT22;41031;44.750;11.308;2023-05-07T14:48:09;28.40;56.60
55135;DHT22;41031;44.750;11.308;2023-05-07T14:50:42;28.30;56.70
55135;DHT22;41031;44.750;11.308;2023-05-07T14:53:09;28.30;56.40
55135;DHT22;41031;44.750;11.308;2023-05-07T14:55:36;28.20;56.00
55135;DHT22;41031;44.750;11.308;2023-05-07T14:58:03;28.10;56.20
55135;DHT22;41031;44.750;11.308;2023-05-07T15:00:30;28.10;56.70
55135;DHT22;41031;44.750;11.308;2023-05-07T15:03:08;28.00;56.70
55135;DHT22;41031;44.750;11.308;2023-05-07T15:05:36;27.90;57.80
55135;DHT22;41031;44.750;11.308;2023-05-07T15:08:03;27.80;58.20
55135;DHT22;41031;44.750;11.308;2023-05-07T15:10:30;27.70;59.10
55135;DHT22;41031;44.750;11.308;2023-05-07T15:12:57;27.50;58.10
55135;DHT22;41031;44.750;11.308;2023-05-07T15:15:24;27.40;59.20
55135;DHT22;41031;44.750;11.308;2023-05-07T15:17:53;27.40;60.30
55135;DHT22;41031;44.750;11.308;2023-05-07T15:20:20;27.40;60.80
55135;DHT22;41031;44.750;11.308;2023-05-07T15:22:48;27.40;59.90
55135;DHT22;41031;44.750;11.308;2023-05-07T15:25:15;27.40;60.00
55135;DHT22;41031;44.750;11.308;2023-05-07T15:27:43;27.40;60.00
55135;DHT22;41031;44.750;11.308;2023-05-07T15:30:11;27.50;60.30
55135;DHT22;41031;44.750;11.308;2023-05-07T15:32:38;27.50;59.60
55135;DHT22;41031;44.750;11.308;2023-05-07T15:35:06;27.60;59.50